Time;durP1;ratioP1;P1;durP2;ratioP2;P2;SDS_P1;SDS_P2;PMS_P1;PMS_P2;Temp;Humidity;BMP_temperature;BMP_pressure;BME280_temperature;BME280_humidity;BME280_pressure;Samples;Min_cycle;Max_cycle;Signal;HPM_P1;HPM_P2
2021/08/10 00:00:54;;;;;;;5.73;2.30;;;16.70;92.80;;;;;;4998534;28;20629;-80
2021/08/10 00:03:20;;;;;;;6.77;2.47;;;16.60;92.80;;;;;;4999220;28;20163;-79
2021/08/10 00:05:49;;;;;;;6.53;2.83;;;16.60;93.00;;;;;;5007864;28;20191;-80
2021/08/10 00:08:15;;;;;;;4.57;2.90;;;16.50;93.20;;;;;;5001585;28;21072;-79
2021/08/10 00:10:43;;;;;;;6.13;2.33;;;16.50;93.30;;;;;;4999827;28;20459;-80
2021/08/10 00:13:09;;;;;;;4.57;2.30;;;16.40;93.30;;;;;;4996976;28;20403;-79
2021/08/10 00:15:35;;;;;;;4.83;2.43;;;16.30;93.50;;;;;;4998147;28;20419;-81
2021/08/10 00:18:00;;;;;;;5.40;2.60;;;16.30;93.70;;;;;;4996439;28;20431;-80
2021/08/10 00:20:26;;;;;;;5.93;2.37;;;16.30;93.80;;;;;;4997164;28;20214;-78
2021/08/10 00:22:52;;;;;;;4.70;3.00;;;16.20;93.90;;;;;;4996319;28;20180;-79
2021/08/10 00:25:17;;;;;;;3.70;2.40;;;16.20;94.30;;;;;;4996241;28;20210;-80
2021/08/10 00:27:44;;;;;;;5.43;2.20;;;16.20;94.40;;;;;;4996306;28;20411;-80
2021/08/10 00:30:10;;;;;;;3.77;2.60;;;16.20;94.40;;;;;;4979393;28;20281;-79
2021/08/10 00:32:36;;;;;;;3.27;1.90;;;16.10;94.40;;;;;;4998821;28;20435;-81
2021/08/10 00:35:02;;;;;;;4.53;2.50;;;16.10;94.50;;;;;;4997822;28;20490;-79
2021/08/10 00:37:28;;;;;;;4.17;2.07;;;16.10;94.60;;;;;;4996051;28;20192;-80
2021/08/10 00:39:54;;;;;;;4.43;2.37;;;16.00;94.50;;;;;;4998113;28;20593;-79
2021/08/10 00:42:19;;;;;;;3.50;1.73;;;16.00;94.60;;;;;;4997896;28;20168;-79
2021/08/10 00:44:45;;;;;;;4.90;3.43;;;16.00;94.60;;;;;;5004358;28;20743;-81
2021/08/10 00:47:12;;;;;;;9.20;2.27;;;16.00;94.60;;;;;;4996574;28;20164;-79
2021/08/10 00:49:38;;;;;;;5.73;2.40;;;16.00;94.70;;;;;;4996261;28;20442;-82
2021/08/10 00:52:04;;;;;;;6.37;2.70;;;16.00;94.80;;;;;;4997070;28;20200;-80
2021/08/10 00:54:33;;;;;;;7.60;2.27;;;16.00;94.90;;;;;;4997175;28;20247;-79
2021/08/10 00:56:59;;;;;;;8.77;2.63;;;16.00;95.00;;;;;;4995948;28;20601;-81
2021/08/10 00:59:38;;;;;;;5.20;2.20;;;16.00;95.00;;;;;;4997651;28;20434;-81
2021/08/10 01:02:06;;;;;;;5.57;2.93;;;16.00;95.00;;;;;;4990172;28;20427;-79
2021/08/10 01:04:34;;;;;;;5.00;2.40;;;16.00;94.80;;;;;;4986059;28;20490;-81
2021/08/10 01:07:30;;;;;;;7.83;2.30;;;15.90;94.70;;;;;;5001147;28;20421;-80
2021/08/10 01:10:17;;;;;;;3.80;2.87;;;15.90;94.70;;;;;;5002362;28;20431;-81
2021/08/10 01:12:58;;;;;;;4.27;2.20;;;15.90;94.70;;;;;;5003660;28;20392;-79
2021/08/10 01:15:32;;;;;;;7.53;2.60;;;15.90;94.90;;;;;;5005825;28;20427;-79
2021/08/10 01:18:05;;;;;;;6.67;2.37;;;15.90;94.90;;;;;;5005320;28;20422;-78
2021/08/10 01:21:10;;;;;;;7.10;2.70;;;15.90;94.90;;;;;;4986875;28;20430;-79
2021/08/10 01:23:40;;;;;;;6.70;2.93;;;15.90;95.00;;;;;;5004348;28;20847;-79
2021/08/10 01:26:49;;;;;;;4.83;3.60;;;15.90;95.10;;;;;;4985065;28;20490;-79
2021/08/10 01:29:30;;;;;;;6.50;2.40;;;15.80;95.10;;;;;;4980232;28;20746;-80
2021/08/10 01:31:57;;;;;;;5.27;2.87;;;15.90;95.30;;;;;;4980075;28;20437;-79
2021/08/10 01:34:34;;;;;;;6.30;2.50;;;15.90;95.30;;;;;;4996953;28;20436;-80
2021/08/10 01:37:15;;;;;;;7.13;2.83;;;15.90;95.30;;;;;;4996555;28;20427;-80
2021/08/10 01:39:51;;;;;;;4.23;2.23;;;15.90;95.30;;;;;;4995921;28;20737;-80
2021/08/10 01:42:18;;;;;;;2.83;2.43;;;15.90;95.10;;;;;;4996291;28;20418;-79
2021/08/10 01:44:45;;;;;;;6.00;2.70;;;15.90;95.00;;;;;;4996083;28;20536;-81
2021/08/10 01:47:11;;;;;;;3.80;3.00;;;15.90;94.90;;;;;;4995630;28;20789;-79
2021/08/10 01:49:41;;;;;;;8.00;3.33;;;15.90;94.90;;;;;;4995679;28;20438;-80
2021/08/10 01:52:20;;;;;;;6.23;2.53;;;15.90;94.90;;;;;;4995984;28;20421;-79
2021/08/10 01:54:49;;;;;;;8.27;3.47;;;15.90;94.80;;;;;;4996309;28;20419;-80
2021/08/10 01:57:19;;;;;;;4.80;2.70;;;15.90;94.70;;;;;;4996735;28;20469;-80
2021/08/10 01:59:50;;;;;;;4.87;2.33;;;15.90;94.60;;;;;;4998874;28;20465;-81
2021/08/10 02:02:15;;;;;;;5.07;3.27;;;15.90;94.50;;;;;;4996070;28;20668;-81
2021/08/10 02:04:47;;;;;;;5.07;2.43;;;15.90;94.50;;;;;;4996293;28;20496;-80
2021/08/10 02:07:15;;;;;;;5.07;2.73;;;15.90;94.50;;;;;;4997806;28;20411;-78
2021/08/10 02:09:42;;;;;;;6.40;3.00;;;15.80;94.30;;;;;;4981040;28;20497;-78
2021/08/10 02:12:09;;;;;;;3.37;2.00;;;15.80;94.40;;;;;;5002592;28;20430;-81
2021/08/10 02:14:42;;;;;;;7.67;2.70;;;15.80;94.20;;;;;;4997189;28;20419;-80
2021/08/10 02:17:16;;;;;;;5.57;2.90;;;15.80;94.10;;;;;;4995500;28;20406;-79
2021/08/10 02:19:48;;;;;;;2.77;2.13;;;15.70;94.10;;;;;;4995635;28;20445;-79
2021/08/10 02:22:16;;;;;;;6.40;2.63;;;15.70;94.20;;;;;;4996032;28;20940;-81
2021/08/10 02:24:54;;;;;;;3.33;2.30;;;15.70;94.10;;;;;;4995523;28;20875;-79
2021/08/10 02:27:36;;;;;;;4.50;2.10;;;15.70;94.20;;;;;;4998490;28;20418;-79
2021/08/10 02:30:09;;;;;;;3.47;2.00;;;15.70;94.20;;;;;;4999535;23;20497;-76
2021/08/10 02:32:37;;;;;;;7.53;2.83;;;15.80;94.20;;;;;;4992192;28;20428;-76
2021/08/10 02:35:06;;;;;;;6.80;2.50;;;15.80;94.10;;;;;;4976090;28;20414;-76
2021/08/10 02:37:34;;;;;;;4.23;2.43;;;15.80;94.10;;;;;;5003631;22;20489;-77
2021/08/10 02:40:07;;;;;;;4.33;2.10;;;15.90;94.10;;;;;;4985517;28;20432;-76
2021/08/10 02:42:34;;;;;;;4.30;2.27;;;15.90;94.00;;;;;;4969982;28;20425;-77
2021/08/10 02:45:03;;;;;;;3.13;2.30;;;15.90;93.80;;;;;;4969572;28;20517;-76
2021/08/10 02:47:29;;;;;;;3.70;2.83;;;15.90;93.60;;;;;;4954190;28;20436;-77
2021/08/10 02:49:56;;;;;;;6.90;2.87;;;15.90;93.60;;;;;;4938712;28;20433;-75
2021/08/10 02:52:22;;;;;;;4.00;2.37;;;16.00;93.60;;;;;;4972014;28;20430;-76
2021/08/10 02:54:50;;;;;;;4.10;2.33;;;16.00;93.50;;;;;;4972427;28;20530;-77
2021/08/10 02:57:26;;;;;;;4.53;2.77;;;16.10;93.60;;;;;;4974445;28;20926;-77
2021/08/10 02:59:59;;;;;;;4.70;2.30;;;16.10;93.60;;;;;;4973379;28;20419;-77
2021/08/10 03:02:30;;;;;;;3.30;2.17;;;16.10;93.50;;;;;;4974614;28;20857;-76
2021/08/10 03:05:06;;;;;;;3.30;2.10;;;16.20;93.30;;;;;;4957694;28;20794;-76
2021/08/10 03:07:34;;;;;;;4.03;2.43;;;16.20;93.10;;;;;;4976249;28;20461;-77
2021/08/10 03:10:03;;;;;;;4.50;2.47;;;16.20;93.10;;;;;;4957528;28;20450;-76
2021/08/10 03:12:33;;;;;;;4.40;2.17;;;16.20;93.00;;;;;;4971413;28;20419;-76
2021/08/10 03:14:59;;;;;;;3.03;2.10;;;16.20;93.00;;;;;;4972043;28;20412;-77
2021/08/10 03:17:32;;;;;;;3.60;2.63;;;16.20;93.00;;;;;;4956000;28;20459;-77
2021/08/10 03:19:59;;;;;;;4.30;2.30;;;16.30;93.10;;;;;;4971827;28;20180;-76
2021/08/10 03:22:27;;;;;;;3.83;2.43;;;16.30;93.20;;;;;;4972759;28;20407;-76
2021/08/10 03:24:55;;;;;;;4.17;2.47;;;16.30;93.20;;;;;;4971524;28;20787;-77
2021/08/10 03:27:23;;;;;;;4.80;2.30;;;16.30;93.40;;;;;;4971232;28;20435;-77
2021/08/10 03:29:49;;;;;;;5.13;2.53;;;16.20;93.30;;;;;;4970171;28;20431;-76
2021/08/10 03:32:15;;;;;;;5.60;2.43;;;16.20;93.40;;;;;;4970460;28;20915;-76
2021/08/10 03:34:42;;;;;;;5.07;2.23;;;16.20;93.50;;;;;;4972105;28;20423;-77
2021/08/10 03:37:09;;;;;;;3.30;2.07;;;16.10;93.30;;;;;;4974636;28;21103;-77
2021/08/10 03:39:39;;;;;;;6.23;2.67;;;16.20;93.40;;;;;;4974240;28;20420;-76
2021/08/10 03:42:07;;;;;;;3.23;1.63;;;16.20;93.50;;;;;;4973018;28;20411;-77
2021/08/10 03:44:34;;;;;;;6.60;2.80;;;16.10;93.50;;;;;;4973620;28;20478;-77
2021/08/10 03:47:00;;;;;;;4.43;2.43;;;16.10;93.70;;;;;;4975429;28;20920;-77
2021/08/10 03:49:28;;;;;;;4.83;2.30;;;16.10;93.90;;;;;;4957641;28;20416;-77
2021/08/10 03:51:54;;;;;;;2.80;1.97;;;16.10;93.90;;;;;;4973827;28;20423;-77
2021/08/10 03:54:20;;;;;;;4.23;2.10;;;16.10;94.10;;;;;;4973920;28;20483;-77
2021/08/10 03:56:49;;;;;;;5.53;2.87;;;16.10;94.20;;;;;;4957619;28;20780;-77
2021/08/10 03:59:19;;;;;;;4.57;2.17;;;16.10;94.50;;;;;;4973932;28;20834;-76
2021/08/10 04:01:50;;;;;;;3.80;2.83;;;16.10;94.50;;;;;;4989177;28;20416;-75
2021/08/10 04:04:20;;;;;;;3.63;2.23;;;16.00;94.50;;;;;;4995860;28;20475;-76
2021/08/10 04:06:52;;;;;;;4.70;2.53;;;16.00;94.50;;;;;;4986506;28;20873;-77
2021/08/10 04:09:21;;;;;;;6.90;3.90;;;16.00;94.60;;;;;;4970744;28;20442;-76
2021/08/10 04:11:48;;;;;;;4.07;2.23;;;16.00;94.70;;;;;;4970147;28;20443;-77
2021/08/10 04:14:19;;;;;;;3.70;2.03;;;15.90;94.70;;;;;;4970673;28;20410;-76
2021/08/10 04:16:48;;;;;;;4.40;2.10;;;16.00;94.80;;;;;;4971271;28;20800;-77
2021/08/10 04:19:14;;;;;;;3.80;2.70;;;15.90;94.60;;;;;;4973472;28;20415;-76
2021/08/10 04:21:42;;;;;;;7.63;2.63;;;15.90;94.50;;;;;;4957300;28;20446;-77
2021/08/10 04:24:08;;;;;;;2.57;1.97;;;15.90;94.60;;;;;;4973224;28;20414;-75
2021/08/10 04:26:36;;;;;;;3.27;1.90;;;15.80;94.70;;;;;;4972329;28;20931;-76
2021/08/10 04:29:02;;;;;;;5.77;2.47;;;15.80;94.60;;;;;;4971194;28;20176;-76
2021/08/10 04:31:28;;;;;;;4.23;2.00;;;15.80;94.70;;;;;;4954600;28;20498;-76
2021/08/10 04:33:54;;;;;;;10.90;2.60;;;15.70;94.50;;;;;;4973313;28;20510;-77
2021/08/10 04:36:21;;;;;;;6.93;2.70;;;15.70;94.50;;;;;;4972667;28;20880;-76
2021/08/10 04:38:48;;;;;;;4.20;2.20;;;15.60;94.40;;;;;;4972478;28;20550;-77
2021/08/10 04:41:14;;;;;;;6.73;3.27;;;15.60;94.60;;;;;;4976251;28;21039;-77
2021/08/10 04:43:46;;;;;;;3.77;2.63;;;15.50;94.60;;;;;;4974244;28;20164;-76
2021/08/10 04:46:12;;;;;;;5.00;2.90;;;15.50;94.80;;;;;;4975897;28;20476;-76
2021/08/10 04:48:38;;;;;;;4.43;2.40;;;15.50;94.90;;;;;;4974359;28;20464;-76
2021/08/10 04:51:08;;;;;;;4.83;2.57;;;15.50;94.90;;;;;;4974587;28;20255;-76
2021/08/10 04:53:34;;;;;;;4.57;2.70;;;15.50;95.00;;;;;;4973977;28;20758;-76
2021/08/10 04:55:59;;;;;;;5.80;3.10;;;15.50;95.00;;;;;;4975889;28;20171;-76
2021/08/10 04:58:28;;;;;;;8.77;3.00;;;15.60;95.10;;;;;;4974332;28;20193;-76
2021/08/10 05:00:54;;;;;;;4.70;2.63;;;15.60;95.10;;;;;;4980157;28;20425;-76
2021/08/10 05:03:19;;;;;;;5.20;3.57;;;15.60;95.00;;;;;;4978579;28;20233;-77
2021/08/10 05:05:45;;;;;;;4.63;2.87;;;15.60;95.10;;;;;;4980312;28;20337;-76
2021/08/10 05:08:11;;;;;;;5.77;3.27;;;15.70;95.10;;;;;;4976281;28;20194;-76
2021/08/10 05:10:37;;;;;;;5.20;2.53;;;15.70;95.10;;;;;;4974309;28;20415;-77
2021/08/10 05:13:03;;;;;;;4.73;2.73;;;15.70;95.00;;;;;;4975490;28;20411;-77
2021/08/10 05:15:29;;;;;;;3.60;2.97;;;15.70;95.10;;;;;;4976000;28;20172;-77
2021/08/10 05:17:55;;;;;;;6.00;3.10;;;15.70;95.00;;;;;;4975815;28;20451;-76
2021/08/10 05:20:25;;;;;;;4.63;3.20;;;15.70;94.90;;;;;;4975121;28;20191;-77
2021/08/10 05:22:51;;;;;;;8.93;2.90;;;15.70;94.90;;;;;;4974885;28;20411;-76
2021/08/10 05:25:17;;;;;;;4.00;2.37;;;15.70;94.90;;;;;;4976129;28;20283;-77
2021/08/10 05:27:45;;;;;;;5.77;2.30;;;15.70;95.10;;;;;;4975256;28;20220;-77
2021/08/10 05:30:13;;;;;;;6.43;2.73;;;15.70;95.10;;;;;;4959911;28;21038;-77
2021/08/10 05:32:40;;;;;;;5.27;3.17;;;15.70;95.30;;;;;;4959128;28;20412;-76
2021/08/10 05:35:06;;;;;;;5.70;3.80;;;15.80;95.20;;;;;;4974965;28;20921;-76
2021/08/10 05:37:32;;;;;;;8.13;3.60;;;15.80;95.10;;;;;;4973259;28;20451;-78
2021/08/10 05:39:58;;;;;;;5.33;2.67;;;15.90;94.90;;;;;;4981270;28;20555;-76
2021/08/10 05:42:24;;;;;;;5.07;2.93;;;15.90;94.90;;;;;;4958951;28;20168;-76
2021/08/10 05:44:49;;;;;;;12.10;3.23;;;16.00;94.80;;;;;;4974859;28;20207;-77
2021/08/10 05:47:15;;;;;;;6.70;2.83;;;16.00;94.90;;;;;;4975213;28;20453;-77
2021/08/10 05:49:42;;;;;;;5.77;3.77;;;16.10;94.80;;;;;;4974848;28;20223;-77
2021/08/10 05:52:11;;;;;;;4.80;3.30;;;16.10;94.70;;;;;;4974697;28;20415;-78
2021/08/10 05:54:38;;;;;;;7.67;3.40;;;16.20;94.50;;;;;;4977216;28;20172;-77
2021/08/10 05:57:04;;;;;;;8.60;4.37;;;16.30;94.40;;;;;;4977539;28;20866;-77
2021/08/10 05:59:30;;;;;;;9.83;4.00;;;16.40;94.40;;;;;;4977407;28;20440;-77
2021/08/10 06:02:01;;;;;;;7.67;3.30;;;16.60;93.90;;;;;;4979210;28;21001;-77
2021/08/10 06:04:26;;;;;;;4.20;2.33;;;16.70;93.40;;;;;;4978395;28;20951;-76
2021/08/10 06:06:53;;;;;;;5.60;2.83;;;16.70;93.20;;;;;;4975903;28;20452;-76
2021/08/10 06:09:19;;;;;;;7.93;3.30;;;16.80;93.20;;;;;;4978786;28;20431;-78
2021/08/10 06:11:45;;;;;;;4.60;2.60;;;16.90;93.00;;;;;;4978969;28;20416;-77
2021/08/10 06:14:12;;;;;;;4.10;2.50;;;17.40;94.00;;;;;;4980155;28;20400;-77
2021/08/10 06:16:38;;;;;;;10.70;5.00;;;18.50;92.70;;;;;;4979712;28;20415;-77
2021/08/10 06:19:12;;;;;;;4.60;2.47;;;19.80;89.60;;;;;;4979247;28;20201;-77
2021/08/10 06:21:37;;;;;;;5.47;3.13;;;20.90;83.00;;;;;;4982379;28;20418;-78
2021/08/10 06:24:04;;;;;;;5.23;2.80;;;21.70;78.60;;;;;;4981276;28;20180;-78
2021/08/10 06:26:31;;;;;;;5.33;2.97;;;22.40;73.70;;;;;;4981101;28;20490;-77
2021/08/10 06:28:57;;;;;;;5.07;2.90;;;22.70;70.40;;;;;;4979010;28;20500;-77
2021/08/10 06:31:23;;;;;;;6.70;3.17;;;22.20;70.10;;;;;;4979382;28;20169;-76
2021/08/10 06:33:52;;;;;;;7.60;2.83;;;21.60;71.00;;;;;;4977100;28;20165;-77
2021/08/10 06:36:22;;;;;;;5.30;2.73;;;21.00;72.40;;;;;;4977444;28;20415;-78
2021/08/10 06:38:47;;;;;;;5.77;2.80;;;20.40;75.10;;;;;;4976345;28;20454;-77
2021/08/10 06:41:14;;;;;;;7.63;2.60;;;20.00;76.10;;;;;;4983723;28;20180;-76
2021/08/10 06:43:56;;;;;;;3.87;2.10;;;19.60;77.90;;;;;;4980629;28;20445;-77
2021/08/10 06:46:26;;;;;;;4.37;2.97;;;19.20;80.60;;;;;;4978482;28;20464;-77
2021/08/10 06:48:56;;;;;;;4.13;2.37;;;19.00;82.40;;;;;;4977981;28;20437;-80
2021/08/10 06:51:26;;;;;;;10.83;6.80;;;18.90;83.00;;;;;;4965037;28;20423;-78
2021/08/10 06:53:52;;;;;;;3.70;2.83;;;18.80;83.60;;;;;;4979868;28;20717;-77
2021/08/10 06:56:18;;;;;;;5.13;2.40;;;18.80;84.90;;;;;;4977663;28;20280;-76
2021/08/10 06:58:44;;;;;;;7.03;2.97;;;19.10;85.00;;;;;;4962054;28;20215;-77
2021/08/10 07:01:09;;;;;;;5.20;2.90;;;19.30;83.60;;;;;;4980237;28;20715;-79
2021/08/10 07:03:38;;;;;;;6.07;3.90;;;19.40;82.30;;;;;;4977846;28;20179;-78
2021/08/10 07:06:04;;;;;;;6.53;3.30;;;19.50;82.20;;;;;;4979298;28;20540;-79
2021/08/10 07:08:37;;;;;;;7.10;3.00;;;19.50;81.50;;;;;;4975936;28;20205;-77
2021/08/10 07:11:05;;;;;;;4.57;2.93;;;19.50;82.30;;;;;;4962147;28;20485;-78
2021/08/10 07:13:34;;;;;;;6.77;3.10;;;19.60;82.30;;;;;;4977365;28;20501;-77
2021/08/10 07:16:00;;;;;;;9.10;3.30;;;19.70;81.80;;;;;;4974918;28;20415;-77
2021/08/10 07:18:27;;;;;;;8.37;3.27;;;19.80;81.70;;;;;;4946616;28;20258;-77
2021/08/10 07:20:53;;;;;;;5.47;3.77;;;19.90;81.70;;;;;;4979406;28;20419;-78
2021/08/10 07:23:24;;;;;;;6.83;3.30;;;20.10;80.10;;;;;;4978863;28;20416;-78
2021/08/10 07:25:51;;;;;;;6.23;4.83;;;20.70;79.80;;;;;;4980214;28;20456;-78
2021/08/10 07:28:22;;;;;;;6.67;3.23;;;21.70;77.00;;;;;;4979120;28;20424;-78
2021/08/10 07:30:50;;;;;;;8.20;2.57;;;22.50;71.10;;;;;;4985182;28;20419;-77
2021/08/10 07:33:17;;;;;;;3.97;2.60;;;23.20;69.50;;;;;;4987391;28;20412;-78
2021/08/10 07:35:43;;;;;;;4.90;3.50;;;23.90;67.30;;;;;;4975163;28;20427;-78
2021/08/10 07:38:13;;;;;;;5.83;2.80;;;24.30;63.10;;;;;;4988139;28;20443;-78
2021/08/10 07:40:38;;;;;;;4.00;2.40;;;24.40;60.90;;;;;;4978216;28;20420;-77
2021/08/10 07:43:06;;;;;;;4.07;2.67;;;24.20;62.40;;;;;;4973522;28;20215;-77
2021/08/10 07:45:39;;;;;;;3.57;2.37;;;24.20;61.80;;;;;;4973959;28;20478;-77
2021/08/10 07:48:10;;;;;;;6.50;4.83;;;24.10;62.20;;;;;;4975497;28;20849;-76
2021/08/10 07:50:37;;;;;;;4.33;3.17;;;25.00;61.20;;;;;;4979035;28;20964;-78
2021/08/10 07:53:03;;;;;;;3.57;3.20;;;26.30;57.80;;;;;;4984232;28;20423;-79
2021/08/10 07:55:29;;;;;;;5.10;3.10;;;27.10;55.00;;;;;;4983692;28;20423;-79
2021/08/10 07:57:55;;;;;;;6.63;3.23;;;27.50;53.10;;;;;;4985528;28;20199;-78
2021/08/10 08:00:22;;;;;;;5.17;3.20;;;27.20;52.90;;;;;;4981405;28;20420;-78
2021/08/10 08:02:48;;;;;;;5.17;3.23;;;26.40;54.50;;;;;;4982742;28;20420;-79
2021/08/10 08:05:14;;;;;;;5.37;3.33;;;25.60;55.70;;;;;;4978474;28;20479;-77
2021/08/10 08:07:39;;;;;;;7.17;3.50;;;24.90;58.00;;;;;;4975633;28;20440;-77
2021/08/10 08:10:07;;;;;;;7.40;3.23;;;24.10;59.50;;;;;;4957630;28;20168;-77
2021/08/10 08:12:33;;;;;;;5.07;2.90;;;23.40;61.40;;;;;;4956425;28;20451;-77
2021/08/10 08:14:59;;;;;;;8.20;3.70;;;23.00;63.30;;;;;;4975149;28;20415;-80
2021/08/10 08:17:25;;;;;;;5.30;3.10;;;22.70;65.60;;;;;;4963649;28;20275;-78
2021/08/10 08:19:50;;;;;;;5.00;3.50;;;22.60;66.10;;;;;;4977931;28;20467;-76
2021/08/10 08:22:18;;;;;;;6.30;3.17;;;22.50;65.50;;;;;;4956294;28;20196;-77
2021/08/10 08:24:44;;;;;;;4.10;3.10;;;22.20;65.70;;;;;;4977298;28;20821;-77
2021/08/10 08:27:11;;;;;;;4.27;3.87;;;22.10;67.20;;;;;;4977759;28;20617;-77
2021/08/10 08:29:38;;;;;;;7.80;3.03;;;21.80;67.50;;;;;;4961291;28;20420;-77
2021/08/10 08:32:06;;;;;;;7.63;3.20;;;21.60;68.70;;;;;;4955441;28;20949;-77
2021/08/10 08:34:33;;;;;;;8.07;4.20;;;21.40;69.50;;;;;;4975866;28;20562;-77
2021/08/10 08:36:59;;;;;;;6.33;3.97;;;21.30;69.80;;;;;;4974452;28;20455;-77
2021/08/10 08:39:26;;;;;;;4.90;2.93;;;21.20;71.70;;;;;;5008359;23;20554;-77
2021/08/10 08:42:00;;;;;;;5.93;4.17;;;21.20;71.90;;;;;;4981208;28;20423;-79
2021/08/10 08:44:34;;;;;;;5.20;3.30;;;21.50;71.80;;;;;;4992092;28;20430;-79
2021/08/10 08:47:06;;;;;;;8.80;2.83;;;22.60;69.40;;;;;;4994366;28;20427;-78
2021/08/10 08:49:33;;;;;;;5.00;3.50;;;23.80;65.00;;;;;;4974096;28;20448;-77
2021/08/10 08:52:01;;;;;;;5.90;3.40;;;24.70;62.50;;;;;;4971699;28;20779;-75
2021/08/10 08:54:28;;;;;;;5.27;2.90;;;26.20;57.70;;;;;;4956255;28;20844;-77
2021/08/10 08:56:55;;;;;;;6.53;3.47;;;27.70;54.30;;;;;;4958186;28;20409;-76
2021/08/10 08:59:22;;;;;;;4.77;3.10;;;28.30;51.30;;;;;;4973124;28;20451;-78
2021/08/10 09:01:50;;;;;;;6.87;3.20;;;27.60;51.20;;;;;;4974430;28;20271;-78
2021/08/10 09:04:17;;;;;;;8.37;3.63;;;26.50;52.70;;;;;;4974637;28;20416;-77
2021/08/10 09:06:48;;;;;;;14.50;9.57;;;25.40;54.60;;;;;;4977803;28;20419;-76
2021/08/10 09:09:18;;;;;;;5.40;3.00;;;24.30;56.90;;;;;;4957979;28;20439;-77
2021/08/10 09:11:49;;;;;;;7.67;3.17;;;23.40;59.10;;;;;;4973135;28;20404;-77
2021/08/10 09:14:14;;;;;;;5.87;3.10;;;22.60;61.80;;;;;;4972114;28;20400;-76
2021/08/10 09:17:04;;;;;;;8.00;3.20;;;22.00;63.80;;;;;;4972764;28;20411;-76
2021/08/10 09:19:53;;;;;;;8.60;4.33;;;21.60;67.20;;;;;;4971378;28;20437;-77
2021/08/10 09:22:28;;;;;;;6.17;3.33;;;21.20;69.50;;;;;;4956509;28;20975;-77
2021/08/10 09:25:12;;;;;;;6.77;3.90;;;20.90;70.50;;;;;;4977780;28;20471;-76
2021/08/10 09:27:39;;;;;;;7.93;3.90;;;20.70;73.30;;;;;;4961589;28;20440;-78
2021/08/10 09:30:11;;;;;;;4.87;3.20;;;20.60;74.80;;;;;;4977192;28;20416;-78
2021/08/10 09:32:52;;;;;;;5.50;3.10;;;20.60;74.90;;;;;;4976264;28;20430;-77
2021/08/10 09:35:20;;;;;;;4.70;3.40;;;20.70;74.90;;;;;;4960213;28;20447;-77
2021/08/10 09:38:04;;;;;;;5.13;2.37;;;20.80;74.90;;;;;;4981373;28;20435;-77
2021/08/10 09:40:52;;;;;;;8.60;2.50;;;20.90;75.60;;;;;;4988558;28;20483;-78
2021/08/10 09:43:32;;;;;;;3.10;2.77;;;21.00;76.20;;;;;;4986867;28;20949;-78
2021/08/10 09:46:14;;;;;;;5.67;2.50;;;21.10;75.90;;;;;;4976938;28;20451;-77
2021/08/10 09:48:57;;;;;;;5.90;3.60;;;21.30;76.50;;;;;;4975973;28;20439;-77
2021/08/10 09:51:28;;;;;;;6.10;3.20;;;21.40;76.40;;;;;;4977878;28;20782;-77
2021/08/10 09:53:58;;;;;;;5.13;2.70;;;21.40;76.00;;;;;;4963154;28;20435;-77
2021/08/10 09:56:54;;;;;;;3.00;2.40;;;21.40;75.30;;;;;;4983787;28;20432;-77
2021/08/10 09:59:41;;;;;;;2.93;2.40;;;21.40;75.60;;;;;;4979906;28;20439;-77
2021/08/10 10:02:17;;;;;;;6.20;3.47;;;21.40;76.50;;;;;;4962963;28;20526;-78
2021/08/10 10:04:49;;;;;;;3.63;2.60;;;21.50;77.30;;;;;;4978528;28;20459;-78
2021/08/10 10:07:15;;;;;;;4.70;2.83;;;22.60;76.60;;;;;;4963074;28;20423;-77
2021/08/10 10:10:04;;;;;;;4.30;2.60;;;24.40;70.80;;;;;;4978268;28;20838;-76
2021/08/10 10:12:36;;;;;;;11.47;6.13;;;26.30;61.40;;;;;;4978360;28;20412;-76
2021/08/10 10:15:02;;;;;;;5.80;2.57;;;27.10;56.90;;;;;;4978321;28;20447;-76
2021/08/10 10:17:32;;;;;;;4.70;3.03;;;26.80;56.00;;;;;;4977183;28;20420;-77
2021/08/10 10:19:59;;;;;;;3.20;2.67;;;26.60;55.40;;;;;;4977381;28;20172;-76
2021/08/10 10:22:32;;;;;;;4.07;2.80;;;26.20;54.90;;;;;;4979355;28;20766;-77
2021/08/10 10:25:00;;;;;;;5.70;3.50;;;25.80;55.10;;;;;;4981214;28;20821;-78
2021/08/10 10:27:26;;;;;;;11.27;8.87;;;25.40;55.90;;;;;;4977776;28;21023;-76
2021/08/10 10:29:54;;;;;;;11.37;4.30;;;25.10;57.30;;;;;;4975485;28;20503;-77
2021/08/10 10:32:21;;;;;;;4.73;3.30;;;25.10;57.50;;;;;;4992899;28;20176;-77
2021/08/10 10:34:48;;;;;;;6.93;3.50;;;25.10;57.30;;;;;;4979316;28;20420;-77
2021/08/10 10:37:24;;;;;;;5.13;2.27;;;25.30;56.70;;;;;;4976335;28;20495;-77
2021/08/10 10:40:00;;;;;;;4.20;2.73;;;25.20;55.80;;;;;;4963398;28;20423;-79
2021/08/10 10:42:26;;;;;;;4.87;2.50;;;24.90;56.10;;;;;;4975153;28;20424;-77
2021/08/10 10:44:52;;;;;;;3.40;2.70;;;24.70;57.20;;;;;;4976567;28;20550;-77
2021/08/10 10:47:24;;;;;;;3.70;2.90;;;24.60;57.40;;;;;;4977849;28;20450;-77
2021/08/10 10:49:56;;;;;;;4.60;2.93;;;24.90;57.30;;;;;;4976368;28;20196;-78
2021/08/10 10:52:26;;;;;;;4.63;3.57;;;25.30;55.40;;;;;;4977452;28;20416;-77
2021/08/10 10:54:54;;;;;;;3.30;2.83;;;25.40;55.10;;;;;;4976742;28;20428;-76
2021/08/10 10:57:29;;;;;;;5.03;3.33;;;25.20;54.90;;;;;;4981968;28;20446;-77
2021/08/10 10:59:55;;;;;;;6.43;5.30;;;24.70;56.30;;;;;;4979074;28;20426;-76
2021/08/10 11:02:23;;;;;;;6.43;3.50;;;24.30;57.00;;;;;;4979177;28;20416;-77
2021/08/10 11:05:07;;;;;;;4.93;3.20;;;24.00;58.30;;;;;;4977855;28;20479;-76
2021/08/10 11:07:44;;;;;;;4.13;2.63;;;23.70;59.20;;;;;;4977056;28;20782;-77
2021/08/10 11:10:39;;;;;;;3.90;2.00;;;23.50;59.20;;;;;;4978158;28;20874;-77
2021/08/10 11:13:19;;;;;;;4.37;3.50;;;23.30;59.00;;;;;;4975914;28;20469;-77
2021/08/10 11:15:44;;;;;;;5.03;3.77;;;23.20;59.40;;;;;;4976459;28;20422;-77
2021/08/10 11:18:10;;;;;;;6.10;3.13;;;23.00;60.10;;;;;;4977261;28;20467;-77
2021/08/10 11:20:40;;;;;;;3.83;3.00;;;22.70;61.40;;;;;;4979034;28;20264;-78
2021/08/10 11:23:31;;;;;;;6.57;3.30;;;22.80;62.10;;;;;;4976593;28;20630;-77
2021/08/10 11:25:59;;;;;;;3.20;2.73;;;23.00;61.90;;;;;;4979421;28;20463;-77
2021/08/10 11:28:36;;;;;;;3.63;2.50;;;23.10;60.90;;;;;;4977487;28;20435;-77
2021/08/10 11:31:05;;;;;;;4.67;2.97;;;23.20;60.60;;;;;;4979883;28;20675;-77
2021/08/10 11:33:34;;;;;;;4.93;2.37;;;23.40;59.90;;;;;;4982290;28;20404;-77
2021/08/10 11:36:14;;;;;;;5.90;3.87;;;23.40;59.10;;;;;;4981578;28;20408;-77
2021/08/10 11:38:52;;;;;;;6.23;3.10;;;23.50;59.10;;;;;;4981662;28;20949;-76
2021/08/10 11:41:27;;;;;;;4.50;2.90;;;23.60;59.00;;;;;;4982317;28;20430;-77
2021/08/10 11:43:56;;;;;;;4.70;2.60;;;23.60;58.80;;;;;;4981391;28;20518;-77
2021/08/10 11:46:22;;;;;;;5.23;2.50;;;23.60;58.20;;;;;;4977602;28;20463;-81
2021/08/10 11:48:52;;;;;;;5.90;2.93;;;23.50;58.20;;;;;;4977412;28;20455;-77
2021/08/10 11:51:22;;;;;;;4.33;2.60;;;23.40;58.10;;;;;;4945388;28;20276;-76
2021/08/10 11:53:49;;;;;;;4.90;3.10;;;23.40;58.80;;;;;;4979941;28;20412;-77
2021/08/10 11:56:25;;;;;;;2.83;2.37;;;23.60;58.80;;;;;;4980170;28;20444;-76
2021/08/10 11:58:51;;;;;;;3.50;2.30;;;23.80;58.50;;;;;;4976811;28;20737;-77
2021/08/10 12:01:17;;;;;;;3.00;2.10;;;23.90;57.90;;;;;;4974771;28;20432;-77
2021/08/10 12:03:43;;;;;;;3.17;2.17;;;24.00;57.70;;;;;;4986421;28;20172;-77
2021/08/10 12:06:10;;;;;;;2.87;2.10;;;24.10;57.60;;;;;;4993949;28;20463;-77
2021/08/10 12:08:35;;;;;;;7.53;3.10;;;24.10;56.50;;;;;;4982703;28;20239;-77
2021/08/10 12:11:01;;;;;;;4.07;2.17;;;24.10;57.10;;;;;;4987025;28;20415;-79
2021/08/10 12:13:29;;;;;;;4.23;2.90;;;24.00;57.00;;;;;;4984036;28;20181;-77
2021/08/10 12:15:54;;;;;;;3.30;2.00;;;23.90;57.10;;;;;;5000735;28;20180;-76
2021/08/10 12:18:23;;;;;;;4.37;2.80;;;23.90;57.30;;;;;;4982482;28;20945;-77
2021/08/10 12:21:01;;;;;;;3.67;2.53;;;24.10;57.00;;;;;;4981957;28;20184;-78
2021/08/10 12:23:41;;;;;;;3.67;2.20;;;24.20;56.90;;;;;;4979071;28;20418;-76
2021/08/10 12:26:15;;;;;;;3.40;2.10;;;24.30;56.50;;;;;;4978160;28;20965;-77
2021/08/10 12:28:55;;;;;;;6.50;2.70;;;24.30;56.40;;;;;;4982238;28;20992;-76
2021/08/10 12:31:21;;;;;;;8.20;2.33;;;24.10;56.40;;;;;;4984064;28;20412;-76
2021/08/10 12:33:51;;;;;;;4.53;3.10;;;24.10;57.40;;;;;;4981735;28;20475;-77
2021/08/10 12:36:18;;;;;;;6.23;3.10;;;24.20;57.20;;;;;;4980538;28;20435;-76
2021/08/10 12:38:45;;;;;;;3.40;2.30;;;24.20;56.80;;;;;;4978560;28;20534;-76
2021/08/10 12:41:11;;;;;;;3.57;2.70;;;24.00;57.20;;;;;;4984737;28;20431;-76
2021/08/10 12:43:38;;;;;;;3.77;2.70;;;23.80;57.70;;;;;;4988396;28;20431;-77
2021/08/10 12:46:23;;;;;;;3.73;2.13;;;23.80;58.00;;;;;;4977698;28;20475;-77
2021/08/10 12:49:02;;;;;;;5.80;2.50;;;24.00;57.40;;;;;;4975863;28;20428;-76
2021/08/10 12:51:51;;;;;;;3.80;2.20;;;24.00;57.00;;;;;;4980485;28;20415;-77
2021/08/10 12:54:16;;;;;;;7.27;5.40;;;24.00;56.70;;;;;;4975733;28;20415;-77
2021/08/10 12:56:42;;;;;;;6.00;2.60;;;23.90;57.00;;;;;;4978703;28;20419;-77
2021/08/10 12:59:08;;;;;;;5.50;3.47;;;23.90;57.10;;;;;;4975398;28;20203;-76